Noel, MO (64854)

6:53 PM CDT on March 29, 2017 (GMT -0500)
Wet Prairie | | Change Station
Active Advisory: Tornado Watch

Elev 1199 ft 36.48 °N, 94.60 °W | Updated 44 seconds ago

Partly Cloudy
Partly Cloudy
69.5 °F
Feels Like 69.5 °F
N
12.0
Wind Variable Wind from SSW
Gusts 15.0 mph

Today
High -- | Low -- °F
--% Chance of Precip.
Yesterday
High -- | Low -- °F
Precip. -- in
Pressure 29.64 in
Visibility 10.0 miles
Clouds Scattered Clouds 7500 ft
Scattered Clouds 8000 ft
Scattered Clouds 10000 ft
Dew Point 54 °F
Humidity 58%
Rainfall 0.38 in
Snow Depth Not available.
7:07 AM 7:37 PM
Waxing Crescent, 5% visible
METAR KGMJ 292335Z AUTO 17011G20KT 10SM SCT075 SCT080 SCT100 23/13 A2964 RMK AO2
Pressure 29.64 in
Visibility 10.0 miles
Clouds Scattered Clouds 7500 ft
Scattered Clouds 8000 ft
Scattered Clouds 10000 ft
Dew Point 54 °F
Humidity 58%
Rainfall 0.38 in
Snow Depth Not available.
7:07 AM 7:37 PM
Waxing Crescent, 5% visible
METAR KGMJ 292335Z AUTO 17011G20KT 10SM SCT075 SCT080 SCT100 23/13 A2964 RMK AO2

Get Your Daily Forecast Email!

Thanks for signing up!

Be on the lookout for a verification email in your inbox.

You'll start receiving severe weather alerts in your inbox..

×

10-Day Weather Forecast

Almanac

Astronomy

Mar. 29, 2017 Rise Set
Actual Time
Civil Twilight
Nautical Twilight
Astronomical Twilight
Moon
Length of Visible Light
Length of Day
Tomorrow will be .
, % of the Moon is Illuminated

Today's Extremes

State Highs State Lows

Community

WunderPhotos

Upload Photos

1,962,540 photos uploaded!

WunderBlog® & News

Nearby

Air Quality

  Air Quality AQ Index Pollutant
Not available.

Snow Depth

Station Depth Elevation

Earthquake Activity

City Distance Mag. Time & Date
Minimum magnitude displayed is 2.5.

Earthquake Activity

City Distance Mag. Time & Date
Minimum magnitude displayed is 2.5.

Coastal Water Temperatures

Place Temperature

Stations

Nearby Weather Stations

Station Location Temp. Windchill Dew Point Humidity Wind Precip. Elev Updated Type
                   

Watches & Warnings

Tornado Watch
Issued: 6:43 PM CDT Mar. 29, 2017 – National Weather Service

Tornado Watch 99 remains in effect until 1100 PM CDT for the
following locations

MO
. Missouri counties included are

Barry Barton Bates
Benton Camden Cass
Cedar Christian Dade
Dallas Douglas Greene
Henry Hickory Howell
Jackson Jasper Johnson
Laclede Lawrence McDonald
Miller Morgan Newton
Ozark Pettis Polk
Pulaski St. Clair stone
Taney Texas Vernon
Webster Wright